Time;durP1;ratioP1;P1;durP2;ratioP2;P2;SDS_P1;SDS_P2;PMS_P1;PMS_P2;Temp;Humidity;BMP_temperature;BMP_pressure;BME280_temperature;BME280_humidity;BME280_pressure;Samples;Min_cycle;Max_cycle;Signal;HPM_P1;HPM_P2
2023/03/31 00:02:20;;;;;;;35.83;20.70;;;;;;;;;;6198653;28;20067;-53
2023/03/31 00:05:23;;;;;;;34.50;19.98;;;;;;;;;;6196327;28;20077;-55
2023/03/31 00:08:34;;;;;;;33.50;19.60;;;;;;;;;;6195741;28;20042;-55
2023/03/31 00:11:36;;;;;;;38.20;19.52;;;;;;;;;;6195290;28;20121;-58
2023/03/31 00:14:36;;;;;;;31.67;18.67;;;;;;;;;;6197828;28;20101;-55
2023/03/31 00:17:37;;;;;;;36.90;18.83;;;;;;;;;;6197020;28;20050;-53
2023/03/31 00:20:38;;;;;;;37.75;19.27;;;;;;;;;;6193823;28;20049;-54
2023/03/31 00:23:40;;;;;;;36.33;19.27;;;;;;;;;;6195417;28;20374;-53
2023/03/31 00:26:40;;;;;;;35.17;17.92;;;;;;;;;;6204301;28;20050;-61
2023/03/31 00:29:44;;;;;;;32.10;19.83;;;;;;;;;;6191279;28;20105;-55
2023/03/31 00:32:45;;;;;;;33.38;18.27;;;;;;;;;;6196449;28;20482;-55
2023/03/31 00:35:50;;;;;;;32.83;18.15;;;;;;;;;;6196521;28;20488;-56
2023/03/31 00:39:09;;;;;;;32.03;18.80;;;;;;;;;;6196199;28;20050;-56
2023/03/31 00:42:13;;;;;;;32.03;18.08;;;;;;;;;;6189779;28;20042;-54
2023/03/31 00:45:13;;;;;;;35.70;18.98;;;;;;;;;;6192604;28;20057;-53
2023/03/31 00:48:17;;;;;;;31.65;19.23;;;;;;;;;;6193766;28;20050;-56
2023/03/31 00:51:20;;;;;;;33.35;18.73;;;;;;;;;;6202190;28;20129;-59
2023/03/31 00:54:25;;;;;;;31.73;18.50;;;;;;;;;;6214118;28;20053;-54
2023/03/31 00:57:27;;;;;;;33.35;17.83;;;;;;;;;;6201230;28;20133;-57
2023/03/31 01:00:29;;;;;;;;;;;;;;;;;;6215608;28;20411;-56
2023/03/31 01:03:32;;;;;;;34.97;18.60;;;;;;;;;;6195686;28;19991;-59
2023/03/31 01:06:32;;;;;;;35.22;18.67;;;;;;;;;;6203188;28;20148;-61
2023/03/31 01:09:37;;;;;;;34.72;19.33;;;;;;;;;;6215022;28;20547;-55
2023/03/31 01:12:41;;;;;;;34.78;19.08;;;;;;;;;;6197888;28;20053;-56
2023/03/31 01:15:43;;;;;;;33.63;18.30;;;;;;;;;;6194450;28;20050;-54
2023/03/31 01:18:45;;;;;;;35.80;19.10;;;;;;;;;;6190263;28;20451;-54
2023/03/31 01:22:16;;;;;;;29.48;17.73;;;;;;;;;;6195260;28;20488;-54
2023/03/31 01:25:26;;;;;;;32.65;18.02;;;;;;;;;;6196913;28;20056;-55
2023/03/31 01:28:37;;;;;;;33.55;19.00;;;;;;;;;;6196376;28;20066;-53
2023/03/31 01:32:04;;;;;;;33.63;19.80;;;;;;;;;;6193680;28;20064;-62
2023/03/31 01:35:30;;;;;;;32.63;17.85;;;;;;;;;;6191484;28;20050;-54
2023/03/31 01:39:08;;;;;;;32.05;17.33;;;;;;;;;;6196551;28;20054;-54
2023/03/31 01:42:27;;;;;;;30.10;17.40;;;;;;;;;;6194036;28;20498;-52
2023/03/31 01:45:57;;;;;;;28.20;16.83;;;;;;;;;;6193177;28;20054;-57
2023/03/31 01:49:11;;;;;;;28.38;17.20;;;;;;;;;;6191593;28;20046;-60
2023/03/31 01:52:21;;;;;;;30.67;17.92;;;;;;;;;;6197047;28;20047;-57
2023/03/31 01:55:41;;;;;;;30.90;18.50;;;;;;;;;;6195849;28;20534;-54
2023/03/31 01:58:45;;;;;;;31.75;18.33;;;;;;;;;;6195605;28;20041;-55
2023/03/31 02:01:58;;;;;;;39.55;24.42;;;;;;;;;;6206616;28;20806;-62
2023/03/31 02:05:04;;;;;;;33.00;18.10;;;;;;;;;;6191465;28;20045;-56
2023/03/31 02:08:13;;;;;;;31.92;18.98;;;;;;;;;;6195303;28;20401;-55
2023/03/31 02:11:15;;;;;;;32.00;18.77;;;;;;;;;;6197154;28;20039;-60
2023/03/31 02:14:22;;;;;;;32.45;18.95;;;;;;;;;;6192958;28;20057;-56
2023/03/31 02:17:31;;;;;;;29.23;17.73;;;;;;;;;;6194762;28;20042;-56
2023/03/31 02:20:32;;;;;;;27.60;16.88;;;;;;;;;;6198790;28;20630;-58
2023/03/31 02:23:36;;;;;;;33.42;21.98;;;;;;;;;;6195863;28;20046;-54
2023/03/31 02:26:44;;;;;;;29.38;16.73;;;;;;;;;;6191682;28;20391;-60
2023/03/31 02:29:45;;;;;;;27.48;16.30;;;;;;;;;;6190525;28;20053;-54
2023/03/31 02:32:45;;;;;;;30.33;17.48;;;;;;;;;;6190658;28;20433;-55
2023/03/31 02:35:46;;;;;;;27.90;16.75;;;;;;;;;;6198531;28;20103;-61
2023/03/31 02:38:54;;;;;;;28.80;15.73;;;;;;;;;;6216627;28;20420;-59
2023/03/31 02:41:55;;;;;;;28.92;15.77;;;;;;;;;;6194019;28;20054;-57
2023/03/31 02:45:26;;;;;;;24.33;14.10;;;;;;;;;;6194777;28;20046;-58
2023/03/31 02:48:33;;;;;;;26.52;14.73;;;;;;;;;;6164541;28;20106;-56
2023/03/31 02:52:19;;;;;;;29.08;16.77;;;;;;;;;;6180263;28;20050;-54
2023/03/31 02:55:38;;;;;;;22.52;14.25;;;;;;;;;;6174730;28;20111;-55
2023/03/31 02:59:20;;;;;;;26.02;16.60;;;;;;;;;;6205815;28;20053;-61
2023/03/31 03:02:52;;;;;;;23.95;15.60;;;;;;;;;;6200312;28;20046;-54
2023/03/31 03:06:23;;;;;;;27.55;14.60;;;;;;;;;;6196478;28;20050;-55
2023/03/31 03:09:34;;;;;;;22.30;13.05;;;;;;;;;;6195656;28;20069;-57
2023/03/31 03:13:04;;;;;;;22.45;13.10;;;;;;;;;;6199558;28;20141;-53
2023/03/31 03:16:12;;;;;;;22.92;12.85;;;;;;;;;;6195833;28;20054;-61
2023/03/31 03:19:20;;;;;;;22.90;13.57;;;;;;;;;;6197143;28;20413;-61
2023/03/31 03:22:22;;;;;;;24.67;13.32;;;;;;;;;;6199244;28;20054;-55
2023/03/31 03:25:23;;;;;;;22.23;12.77;;;;;;;;;;6197906;28;20074;-59
2023/03/31 03:28:23;;;;;;;23.60;13.20;;;;;;;;;;6195460;28;20046;-58
2023/03/31 03:31:24;;;;;;;21.48;12.25;;;;;;;;;;6194741;28;20046;-61
2023/03/31 03:34:25;;;;;;;22.20;13.55;;;;;;;;;;6194921;28;20050;-55
2023/03/31 03:37:26;;;;;;;21.33;12.65;;;;;;;;;;6197868;28;20054;-61
2023/03/31 03:40:27;;;;;;;20.13;11.70;;;;;;;;;;6194748;28;20050;-55
2023/03/31 03:43:27;;;;;;;21.30;11.75;;;;;;;;;;6197539;28;20054;-61
2023/03/31 03:46:28;;;;;;;20.48;12.40;;;;;;;;;;6212489;28;20124;-58
2023/03/31 03:49:29;;;;;;;25.90;13.80;;;;;;;;;;6217459;28;20500;-57
2023/03/31 03:52:29;;;;;;;28.98;14.18;;;;;;;;;;6199066;28;20509;-55
2023/03/31 03:55:30;;;;;;;27.40;15.25;;;;;;;;;;6198399;28;20054;-51
2023/03/31 03:58:31;;;;;;;22.58;13.25;;;;;;;;;;6193917;28;20054;-54
2023/03/31 04:01:31;;;;;;;27.77;14.77;;;;;;;;;;6191591;28;20459;-55
2023/03/31 04:04:32;;;;;;;27.65;13.98;;;;;;;;;;6219405;28;20133;-61
2023/03/31 04:07:32;;;;;;;29.15;15.10;;;;;;;;;;6203217;28;20050;-58
2023/03/31 04:10:34;;;;;;;27.17;14.23;;;;;;;;;;6196417;28;20504;-56
2023/03/31 04:13:35;;;;;;;29.25;15.80;;;;;;;;;;6198656;28;20053;-56
2023/03/31 04:16:37;;;;;;;31.70;14.50;;;;;;;;;;6194095;28;20489;-54
2023/03/31 04:19:37;;;;;;;33.47;17.60;;;;;;;;;;6194121;28;20050;-55
2023/03/31 04:22:41;;;;;;;36.55;16.02;;;;;;;;;;6203925;28;20409;-56
2023/03/31 04:25:45;;;;;;;40.90;18.35;;;;;;;;;;6195339;28;20400;-53
2023/03/31 04:28:49;;;;;;;40.55;18.73;;;;;;;;;;6196504;28;20042;-53
2023/03/31 04:31:51;;;;;;;26.27;13.60;;;;;;;;;;6192450;28;20680;-58
2023/03/31 04:35:01;;;;;;;;;;;;;;;;;;6197571;28;20054;-56
2023/03/31 04:38:01;;;;;;;40.97;20.83;;;;;;;;;;6195097;28;19980;-54
2023/03/31 04:41:02;;;;;;;22.55;11.13;;;;;;;;;;6195070;28;20085;-57
2023/03/31 04:44:03;;;;;;;22.83;12.35;;;;;;;;;;6192618;28;20047;-54
2023/03/31 04:47:05;;;;;;;22.67;11.20;;;;;;;;;;6195913;28;20112;-55
2023/03/31 04:50:06;;;;;;;28.02;13.75;;;;;;;;;;6190596;28;20043;-57
2023/03/31 04:53:07;;;;;;;26.23;13.23;;;;;;;;;;6189699;28;20049;-58
2023/03/31 04:56:08;;;;;;;27.38;12.70;;;;;;;;;;6198993;28;20047;-60
2023/03/31 04:59:09;;;;;;;27.42;15.48;;;;;;;;;;6196302;28;20046;-56
2023/03/31 05:02:10;;;;;;;30.80;15.20;;;;;;;;;;6201645;28;20149;-53
2023/03/31 05:05:12;;;;;;;33.75;18.27;;;;;;;;;;6217075;28;20050;-60
2023/03/31 05:08:12;;;;;;;28.23;15.03;;;;;;;;;;6216929;28;20080;-53
2023/03/31 05:11:13;;;;;;;43.05;29.42;;;;;;;;;;6216800;28;20412;-57
2023/03/31 05:14:14;;;;;;;21.27;11.65;;;;;;;;;;6204791;28;20092;-56
2023/03/31 05:17:16;;;;;;;26.70;12.23;;;;;;;;;;6218832;28;20132;-59
2023/03/31 05:20:18;;;;;;;;;;;;;;;;;;6218039;28;20489;-57
2023/03/31 05:23:19;;;;;;;29.08;13.60;;;;;;;;;;6218880;28;19925;-52
2023/03/31 05:26:21;;;;;;;24.85;12.45;;;;;;;;;;6219026;28;20049;-63
2023/03/31 05:29:23;;;;;;;21.88;13.13;;;;;;;;;;6218468;28;20052;-62
2023/03/31 05:32:25;;;;;;;21.67;11.70;;;;;;;;;;6217241;28;20057;-52
2023/03/31 05:35:26;;;;;;;22.20;10.77;;;;;;;;;;6218680;28;20052;-60
2023/03/31 05:38:30;;;;;;;21.23;11.52;;;;;;;;;;6217984;28;20046;-65
2023/03/31 05:41:31;;;;;;;19.23;11.20;;;;;;;;;;6216658;28;20054;-56
2023/03/31 05:44:32;;;;;;;29.55;13.57;;;;;;;;;;6218704;28;20054;-59
2023/03/31 05:47:32;;;;;;;25.92;12.45;;;;;;;;;;6218404;28;20061;-56
2023/03/31 05:50:33;;;;;;;25.17;12.02;;;;;;;;;;6217133;28;20046;-50
2023/03/31 05:53:33;;;;;;;31.35;14.57;;;;;;;;;;6218289;28;20462;-60
2023/03/31 05:56:34;;;;;;;20.33;10.70;;;;;;;;;;6211456;28;20050;-61
2023/03/31 05:59:35;;;;;;;19.23;9.85;;;;;;;;;;6217288;28;20042;-56
2023/03/31 06:02:36;;;;;;;18.15;10.43;;;;;;;;;;6205810;28;20052;-56
2023/03/31 06:05:37;;;;;;;22.20;10.82;;;;;;;;;;6218482;28;20073;-59
2023/03/31 06:08:37;;;;;;;22.13;10.65;;;;;;;;;;6207219;28;20056;-58
2023/03/31 06:11:38;;;;;;;19.35;10.57;;;;;;;;;;6216445;28;20042;-59
2023/03/31 06:14:39;;;;;;;18.02;8.90;;;;;;;;;;6218165;28;20046;-59
2023/03/31 06:17:39;;;;;;;17.33;8.85;;;;;;;;;;6215696;28;20058;-59
2023/03/31 06:20:40;;;;;;;16.60;8.90;;;;;;;;;;6216450;28;20053;-56
2023/03/31 06:23:43;;;;;;;15.65;8.25;;;;;;;;;;6192981;28;20054;-58
2023/03/31 06:26:43;;;;;;;14.13;7.70;;;;;;;;;;6211257;28;20568;-60
2023/03/31 06:29:44;;;;;;;13.93;7.55;;;;;;;;;;6210227;28;20188;-61
2023/03/31 06:32:44;;;;;;;14.45;7.90;;;;;;;;;;6205273;28;20116;-62
2023/03/31 06:35:45;;;;;;;14.75;8.02;;;;;;;;;;6213289;28;20493;-58
2023/03/31 06:38:46;;;;;;;13.77;7.50;;;;;;;;;;6218759;28;20057;-60
2023/03/31 06:41:47;;;;;;;15.90;7.63;;;;;;;;;;6219795;28;20053;-60
2023/03/31 06:44:47;;;;;;;16.95;8.60;;;;;;;;;;6209397;28;20060;-62
2023/03/31 06:47:48;;;;;;;16.58;8.00;;;;;;;;;;6222163;28;20126;-58
2023/03/31 06:50:49;;;;;;;14.90;9.07;;;;;;;;;;6220685;28;20076;-57
2023/03/31 06:53:50;;;;;;;12.40;6.80;;;;;;;;;;6210472;28;20050;-59
2023/03/31 06:56:50;;;;;;;12.18;6.78;;;;;;;;;;6216963;28;20054;-58
2023/03/31 06:59:51;;;;;;;11.27;6.75;;;;;;;;;;6221103;28;20479;-60
2023/03/31 07:02:52;;;;;;;12.52;6.05;;;;;;;;;;6218115;28;20085;-61
2023/03/31 07:05:54;;;;;;;14.23;5.85;;;;;;;;;;6222073;28;20140;-60
2023/03/31 07:08:54;;;;;;;9.57;4.60;;;;;;;;;;6196839;28;20053;-60
2023/03/31 07:11:55;;;;;;;12.32;5.30;;;;;;;;;;6217798;28;20050;-58
2023/03/31 07:14:55;;;;;;;9.77;5.72;;;;;;;;;;6221491;28;20417;-58
2023/03/31 07:18:00;;;;;;;10.82;5.60;;;;;;;;;;6210042;28;20106;-61
2023/03/31 07:21:02;;;;;;;11.98;5.35;;;;;;;;;;6218991;28;20096;-63
2023/03/31 07:24:03;;;;;;;13.52;5.30;;;;;;;;;;6211589;28;20139;-62
2023/03/31 07:27:03;;;;;;;11.80;5.68;;;;;;;;;;6212569;28;20080;-61
2023/03/31 07:30:11;;;;;;;12.48;5.68;;;;;;;;;;6219593;28;20053;-61
2023/03/31 07:33:11;;;;;;;11.55;5.38;;;;;;;;;;6212249;28;20476;-61
2023/03/31 07:36:12;;;;;;;10.70;4.97;;;;;;;;;;6218852;28;20196;-60
2023/03/31 07:39:12;;;;;;;9.93;4.90;;;;;;;;;;6215244;28;20370;-61
2023/03/31 07:42:13;;;;;;;11.10;4.72;;;;;;;;;;6212388;28;20111;-62
2023/03/31 07:45:15;;;;;;;9.15;4.88;;;;;;;;;;6220113;28;20053;-61
2023/03/31 07:48:16;;;;;;;10.18;4.80;;;;;;;;;;6215208;28;20800;-62
2023/03/31 07:51:19;;;;;;;8.13;4.18;;;;;;;;;;6217235;28;20093;-60
2023/03/31 07:54:20;;;;;;;9.18;4.70;;;;;;;;;;6198321;28;20477;-60
2023/03/31 07:57:20;;;;;;;10.50;4.50;;;;;;;;;;6220677;28;20052;-60
2023/03/31 08:00:22;;;;;;;8.75;4.38;;;;;;;;;;6219245;28;20136;-59
2023/03/31 08:03:22;;;;;;;8.40;4.35;;;;;;;;;;6214413;28;20066;-63
2023/03/31 08:06:25;;;;;;;8.82;4.00;;;;;;;;;;6217684;28;20089;-59
2023/03/31 08:09:26;;;;;;;10.10;4.00;;;;;;;;;;6220342;28;20401;-62
2023/03/31 08:16:19;;;;;;;8.68;4.95;;;;;;;;;;6220437;23;20056;-61
2023/03/31 08:19:23;;;;;;;7.65;4.25;;;;;;;;;;6228374;28;20038;-61
2023/03/31 08:22:24;;;;;;;8.00;4.07;;;;;;;;;;6238775;28;20072;-61
2023/03/31 08:25:24;;;;;;;8.73;4.70;;;;;;;;;;6243657;28;20053;-65
2023/03/31 08:28:25;;;;;;;7.75;4.80;;;;;;;;;;6244061;28;20049;-63
2023/03/31 08:31:27;;;;;;;10.02;4.30;;;;;;;;;;6244309;28;20579;-63
2023/03/31 08:34:28;;;;;;;;;;;;;;;;;;6244304;28;20061;-64
2023/03/31 08:37:29;;;;;;;8.27;3.95;;;;;;;;;;6243931;28;19932;-64
2023/03/31 08:40:31;;;;;;;10.93;4.70;;;;;;;;;;6244023;28;20053;-61
2023/03/31 08:43:44;;;;;;;9.88;3.65;;;;;;;;;;6243891;28;20542;-63
2023/03/31 08:46:46;;;;;;;8.10;3.70;;;;;;;;;;6243229;28;20194;-62
2023/03/31 08:49:53;;;;;;;8.48;3.90;;;;;;;;;;6243723;28;20068;-64
2023/03/31 08:53:07;;;;;;;8.20;3.10;;;;;;;;;;6243423;28;20049;-62
2023/03/31 08:56:15;;;;;;;5.28;2.80;;;;;;;;;;6243579;28;20052;-64
2023/03/31 08:59:32;;;;;;;7.57;3.03;;;;;;;;;;6242467;28;20121;-54
2023/03/31 09:02:47;;;;;;;7.50;2.58;;;;;;;;;;6243705;28;20042;-61
2023/03/31 09:05:52;;;;;;;8.75;2.95;;;;;;;;;;6242233;28;20156;-63
2023/03/31 09:09:00;;;;;;;7.22;2.85;;;;;;;;;;6242573;28;20447;-64
2023/03/31 09:12:06;;;;;;;7.50;2.50;;;;;;;;;;6242902;28;20124;-62
2023/03/31 09:15:16;;;;;;;8.30;3.30;;;;;;;;;;6243321;28;20484;-61
2023/03/31 09:18:39;;;;;;;6.93;2.90;;;;;;;;;;6274901;28;20537;-64
2023/03/31 09:21:44;;;;;;;7.00;3.00;;;;;;;;;;6291233;28;20049;-63
2023/03/31 09:24:59;;;;;;;6.63;2.65;;;;;;;;;;6292890;28;20055;-63
2023/03/31 09:28:03;;;;;;;6.50;2.80;;;;;;;;;;6292847;28;20060;-63
2023/03/31 09:31:12;;;;;;;6.00;3.03;;;;;;;;;;6292372;28;20044;-62
2023/03/31 09:34:25;;;;;;;6.82;2.78;;;;;;;;;;6291480;28;20093;-62
2023/03/31 09:37:29;;;;;;;5.60;2.63;;;;;;;;;;6292419;28;20044;-62
2023/03/31 09:40:29;;;;;;;10.25;2.42;;;;;;;;;;6291085;28;20044;-62
2023/03/31 09:43:34;;;;;;;5.72;2.50;;;;;;;;;;6291309;28;20047;-60
2023/03/31 09:46:36;;;;;;;7.13;2.65;;;;;;;;;;6292263;28;20535;-61
2023/03/31 09:49:37;;;;;;;5.13;2.50;;;;;;;;;;6286500;28;20091;-61
2023/03/31 09:53:14;;;;;;;6.55;2.30;;;;;;;;;;6277273;28;20052;-62
2023/03/31 09:56:42;;;;;;;4.70;2.50;;;;;;;;;;6253552;28;20045;-61
2023/03/31 09:59:50;;;;;;;7.15;2.78;;;;;;;;;;6284956;28;20137;-61
2023/03/31 10:02:55;;;;;;;6.47;2.55;;;;;;;;;;6276975;28;20056;-62
2023/03/31 10:05:57;;;;;;;8.23;2.70;;;;;;;;;;6282155;28;20048;-64
2023/03/31 10:09:02;;;;;;;;;;;;;;;;;;6271235;28;20052;-61
2023/03/31 10:12:14;;;;;;;7.40;2.90;;;;;;;;;;6291727;28;19920;-61
2023/03/31 10:15:21;;;;;;;6.97;2.85;;;;;;;;;;6291821;28;20045;-64
2023/03/31 10:18:32;;;;;;;7.05;2.67;;;;;;;;;;6277199;28;20503;-61
2023/03/31 10:21:37;;;;;;;6.25;2.88;;;;;;;;;;6280765;28;20657;-61
2023/03/31 10:24:40;;;;;;;7.75;3.60;;;;;;;;;;6288487;28;20159;-61
2023/03/31 10:27:43;;;;;;;7.75;3.78;;;;;;;;;;6282663;28;20056;-60
2023/03/31 10:30:50;;;;;;;8.05;3.17;;;;;;;;;;6290826;28;20381;-60
2023/03/31 10:33:51;;;;;;;5.97;3.05;;;;;;;;;;6291114;28;20140;-61
2023/03/31 10:36:52;;;;;;;9.15;3.33;;;;;;;;;;6282435;28;20439;-64
2023/03/31 10:40:22;;;;;;;8.50;3.45;;;;;;;;;;6279326;28;20041;-64
2023/03/31 10:43:37;;;;;;;7.97;3.00;;;;;;;;;;6278575;28;20045;-61
2023/03/31 10:46:41;;;;;;;6.97;3.17;;;;;;;;;;6279923;28;20052;-60
2023/03/31 10:49:43;;;;;;;8.82;3.70;;;;;;;;;;6291638;28;20054;-61
2023/03/31 10:52:46;;;;;;;7.78;3.78;;;;;;;;;;6290514;28;20135;-60
2023/03/31 10:56:01;;;;;;;10.70;7.05;;;;;;;;;;6288818;28;20435;-62
2023/03/31 10:59:28;;;;;;;8.45;3.45;;;;;;;;;;6275365;28;20044;-61
2023/03/31 11:02:49;;;;;;;7.75;2.97;;;;;;;;;;6291386;28;20492;-62
2023/03/31 11:06:01;;;;;;;7.88;3.10;;;;;;;;;;6288278;28;20088;-61
2023/03/31 11:09:24;;;;;;;9.38;3.03;;;;;;;;;;6289821;28;20449;-60
2023/03/31 11:12:42;;;;;;;6.47;3.10;;;;;;;;;;6291252;28;20491;-61
2023/03/31 11:16:17;;;;;;;6.20;2.75;;;;;;;;;;6277823;28;20049;-61
2023/03/31 11:19:38;;;;;;;6.03;2.65;;;;;;;;;;6286332;28;20063;-61
2023/03/31 11:22:54;;;;;;;7.60;2.67;;;;;;;;;;6294504;28;20044;-61
2023/03/31 11:26:01;;;;;;;16.48;6.90;;;;;;;;;;6284917;28;20449;-61
2023/03/31 11:29:10;;;;;;;26.20;17.25;;;;;;;;;;6294123;28;20443;-61
2023/03/31 11:32:39;;;;;;;8.98;4.18;;;;;;;;;;6270322;28;20142;-61
2023/03/31 11:35:42;;;;;;;6.47;2.90;;;;;;;;;;6294313;28;20121;-62
2023/03/31 11:39:08;;;;;;;10.45;3.10;;;;;;;;;;6295311;28;20048;-62
2023/03/31 11:42:46;;;;;;;9.05;3.30;;;;;;;;;;6295383;28;20487;-59
2023/03/31 11:45:56;;;;;;;7.68;2.80;;;;;;;;;;6290054;28;20043;-61
2023/03/31 11:49:01;;;;;;;25.67;8.77;;;;;;;;;;6294284;28;20051;-60
2023/03/31 11:52:08;;;;;;;5.93;2.25;;;;;;;;;;6294931;28;20052;-60
2023/03/31 11:55:21;;;;;;;7.63;2.80;;;;;;;;;;6294781;28;20095;-60
2023/03/31 11:58:38;;;;;;;5.60;2.00;;;;;;;;;;6294606;28;20048;-61
2023/03/31 12:01:57;;;;;;;32.25;13.07;;;;;;;;;;6293774;28;20195;-61
2023/03/31 12:04:58;;;;;;;6.07;2.30;;;;;;;;;;6293740;28;20049;-61
2023/03/31 12:08:34;;;;;;;13.97;5.83;;;;;;;;;;6294765;28;20063;-64
2023/03/31 12:11:49;;;;;;;10.90;5.45;;;;;;;;;;6295108;28;20048;-61
2023/03/31 12:15:18;;;;;;;8.02;3.80;;;;;;;;;;6293180;28;20048;-60
2023/03/31 12:18:23;;;;;;;8.15;2.83;;;;;;;;;;6287085;28;20109;-60
2023/03/31 12:21:26;;;;;;;4.85;2.50;;;;;;;;;;6294400;28;20048;-60
2023/03/31 12:24:28;;;;;;;8.30;2.50;;;;;;;;;;6292353;28;20044;-59
2023/03/31 12:27:37;;;;;;;6.13;1.80;;;;;;;;;;6271493;28;20067;-60
2023/03/31 12:30:42;;;;;;;9.05;2.08;;;;;;;;;;6293355;28;20507;-60
2023/03/31 12:33:56;;;;;;;6.70;2.08;;;;;;;;;;6294213;28;20187;-60
2023/03/31 12:37:30;;;;;;;4.97;1.70;;;;;;;;;;6281099;28;20052;-60
2023/03/31 12:40:39;;;;;;;7.55;1.70;;;;;;;;;;6290284;28;20051;-61
2023/03/31 12:44:04;;;;;;;7.18;2.08;;;;;;;;;;6293228;28;20147;-61
2023/03/31 12:47:43;;;;;;;12.50;7.43;;;;;;;;;;6284237;28;20048;-61
2023/03/31 12:50:49;;;;;;;7.45;3.60;;;;;;;;;;6279678;28;20090;-61
2023/03/31 12:54:12;;;;;;;8.00;3.80;;;;;;;;;;6284635;28;20045;-61
2023/03/31 12:57:24;;;;;;;5.07;2.55;;;;;;;;;;6285954;28;20510;-61
2023/03/31 13:00:26;;;;;;;9.43;2.15;;;;;;;;;;6276103;28;20033;-61
2023/03/31 13:03:41;;;;;;;5.93;1.90;;;;;;;;;;6278919;28;20044;-66
2023/03/31 13:06:41;;;;;;;6.03;1.60;;;;;;;;;;6282038;28;20076;-61
2023/03/31 13:09:44;;;;;;;6.45;1.50;;;;;;;;;;6275704;28;20056;-62
2023/03/31 13:13:04;;;;;;;6.30;1.70;;;;;;;;;;6282296;28;20060;-60
2023/03/31 13:16:04;;;;;;;6.90;1.65;;;;;;;;;;6282910;28;20063;-61
2023/03/31 13:19:06;;;;;;;6.40;2.00;;;;;;;;;;6279939;28;20404;-60
2023/03/31 13:22:28;;;;;;;6.32;2.15;;;;;;;;;;6282678;28;20052;-60
2023/03/31 13:25:28;;;;;;;;;;;;;;;;;;6259185;28;20079;-59
2023/03/31 13:28:38;;;;;;;3.70;1.00;;;;;;;;;;6255478;28;19925;-62
2023/03/31 13:32:05;;;;;;;5.72;1.25;;;;;;;;;;6257759;28;20061;-61
2023/03/31 13:35:16;;;;;;;4.78;1.60;;;;;;;;;;6256943;28;20423;-61
2023/03/31 13:38:45;;;;;;;5.30;1.30;;;;;;;;;;6254622;28;20052;-61
2023/03/31 13:42:07;;;;;;;4.10;1.20;;;;;;;;;;6256477;28;20764;-62
2023/03/31 13:45:41;;;;;;;9.65;4.63;;;;;;;;;;6255782;28;20037;-62
2023/03/31 13:48:57;;;;;;;5.43;1.70;;;;;;;;;;6231716;28;20095;-62
2023/03/31 13:52:02;;;;;;;6.80;4.05;;;;;;;;;;6259156;28;20051;-61
2023/03/31 13:55:19;;;;;;;5.35;2.35;;;;;;;;;;6252702;28;20056;-61
2023/03/31 13:58:37;;;;;;;4.47;1.98;;;;;;;;;;6244577;28;20041;-62
2023/03/31 14:01:49;;;;;;;3.50;1.30;;;;;;;;;;6242858;28;20439;-61
2023/03/31 14:05:05;;;;;;;4.95;1.30;;;;;;;;;;6241937;28;20054;-62
2023/03/31 14:08:25;;;;;;;3.75;1.20;;;;;;;;;;6242275;28;21155;-61
2023/03/31 14:11:30;;;;;;;4.78;1.17;;;;;;;;;;6244005;28;20053;-61
2023/03/31 14:14:31;;;;;;;6.10;1.58;;;;;;;;;;6245431;28;20069;-62
2023/03/31 14:17:37;;;;;;;4.30;1.50;;;;;;;;;;6242246;28;20096;-61
2023/03/31 14:20:56;;;;;;;3.90;1.40;;;;;;;;;;6243605;28;20041;-62
2023/03/31 14:24:04;;;;;;;3.88;1.35;;;;;;;;;;6243883;28;20516;-62
2023/03/31 14:27:28;;;;;;;6.03;1.70;;;;;;;;;;6245234;28;20057;-61
2023/03/31 14:30:52;;;;;;;7.72;3.10;;;;;;;;;;6247544;28;20115;-62
2023/03/31 14:34:14;;;;;;;15.00;2.78;;;;;;;;;;6263696;28;20049;-62
2023/03/31 14:37:16;;;;;;;55.10;24.25;;;;;;;;;;6244859;28;20078;-62
2023/03/31 14:40:17;;;;;;;13.25;7.25;;;;;;;;;;6244681;28;20509;-61
2023/03/31 14:43:21;;;;;;;12.98;6.90;;;;;;;;;;6245066;28;20048;-61
2023/03/31 14:46:21;;;;;;;10.07;6.55;;;;;;;;;;6241974;28;20045;-61
2023/03/31 14:49:28;;;;;;;13.02;5.75;;;;;;;;;;6246478;28;20073;-62
2023/03/31 14:52:31;;;;;;;11.10;9.27;;;;;;;;;;6263997;28;20484;-61
2023/03/31 14:55:33;;;;;;;11.77;9.60;;;;;;;;;;6259635;28;20045;-62
2023/03/31 14:58:38;;;;;;;9.48;4.93;;;;;;;;;;6248639;28;20530;-61
2023/03/31 15:01:39;;;;;;;18.67;10.30;;;;;;;;;;6248511;28;20045;-62
2023/03/31 15:04:43;;;;;;;13.98;8.00;;;;;;;;;;6260354;28;20064;-63
2023/03/31 15:07:44;;;;;;;19.90;12.20;;;;;;;;;;6249622;28;20048;-61
2023/03/31 15:10:50;;;;;;;25.25;12.68;;;;;;;;;;6269818;28;20052;-61
2023/03/31 15:13:51;;;;;;;17.58;7.50;;;;;;;;;;6248454;28;20516;-64
2023/03/31 15:16:52;;;;;;;20.77;11.43;;;;;;;;;;6269043;28;20052;-62
2023/03/31 15:19:55;;;;;;;29.13;17.00;;;;;;;;;;6258934;28;20156;-62
2023/03/31 15:22:57;;;;;;;36.58;26.75;;;;;;;;;;6250047;28;20054;-63
2023/03/31 15:26:07;;;;;;;33.78;25.98;;;;;;;;;;6269155;28;20045;-61
2023/03/31 15:29:20;;;;;;;30.42;17.33;;;;;;;;;;6253131;28;20152;-61
2023/03/31 15:32:24;;;;;;;28.63;15.23;;;;;;;;;;6248443;28;20507;-60
2023/03/31 15:35:29;;;;;;;33.50;17.90;;;;;;;;;;6250630;28;20480;-62
2023/03/31 15:38:31;;;;;;;14.48;7.20;;;;;;;;;;6249418;28;20061;-61
2023/03/31 15:41:32;;;;;;;18.85;9.32;;;;;;;;;;6261762;28;20279;-64
2023/03/31 15:44:41;;;;;;;37.00;21.40;;;;;;;;;;6265780;28;20052;-60
2023/03/31 15:47:52;;;;;;;57.28;32.47;;;;;;;;;;6248823;28;20051;-61
2023/03/31 15:51:04;;;;;;;45.05;24.65;;;;;;;;;;6262471;28;20668;-62
2023/03/31 15:54:30;;;;;;;32.92;17.20;;;;;;;;;;6258452;28;20045;-62
2023/03/31 15:57:33;;;;;;;24.55;12.32;;;;;;;;;;6249854;28;20040;-61
2023/03/31 16:00:51;;;;;;;108.18;59.55;;;;;;;;;;6244863;28;20046;-62
2023/03/31 16:03:53;;;;;;;46.40;24.92;;;;;;;;;;6247992;28;20042;-63
2023/03/31 16:07:00;;;;;;;29.58;17.92;;;;;;;;;;6248251;28;20045;-62
2023/03/31 16:10:15;;;;;;;30.00;15.95;;;;;;;;;;6247981;28;20059;-63
2023/03/31 16:13:23;;;;;;;26.85;14.88;;;;;;;;;;6252154;28;20041;-62
2023/03/31 16:16:26;;;;;;;66.63;45.22;;;;;;;;;;6249027;28;20059;-60
2023/03/31 16:19:37;;;;;;;57.67;35.10;;;;;;;;;;6248304;28;20046;-61
2023/03/31 16:22:42;;;;;;;66.68;40.20;;;;;;;;;;6246575;28;20041;-62
2023/03/31 16:25:43;;;;;;;48.72;29.23;;;;;;;;;;6248459;28;20048;-61
2023/03/31 16:28:52;;;;;;;37.97;20.07;;;;;;;;;;6245596;28;20045;-60
2023/03/31 16:32:13;;;;;;;30.48;17.27;;;;;;;;;;6251485;28;20055;-63
2023/03/31 16:35:13;;;;;;;35.47;19.95;;;;;;;;;;6247136;28;20069;-61
2023/03/31 16:38:17;;;;;;;40.72;24.50;;;;;;;;;;6246373;28;20052;-61
2023/03/31 16:41:22;;;;;;;73.57;44.42;;;;;;;;;;6247518;28;20115;-62
2023/03/31 16:44:22;;;;;;;59.03;34.83;;;;;;;;;;6248404;28;20063;-61
2023/03/31 16:47:23;;;;;;;52.40;24.98;;;;;;;;;;6263998;28;20048;-61
2023/03/31 16:50:24;;;;;;;38.90;18.73;;;;;;;;;;6249842;28;20045;-61
2023/03/31 16:53:27;;;;;;;37.78;19.05;;;;;;;;;;6255031;28;20041;-61
2023/03/31 16:56:28;;;;;;;42.72;20.50;;;;;;;;;;6266886;28;20060;-61
2023/03/31 16:59:28;;;;;;;41.10;21.25;;;;;;;;;;6243088;28;20053;-60
2023/03/31 17:02:29;;;;;;;41.15;22.05;;;;;;;;;;6244044;28;20075;-62
2023/03/31 17:05:31;;;;;;;42.78;22.50;;;;;;;;;;6245822;28;20095;-61
2023/03/31 17:08:33;;;;;;;45.38;24.88;;;;;;;;;;6248457;28;20053;-63
2023/03/31 17:11:34;;;;;;;39.85;21.27;;;;;;;;;;6246438;28;20045;-61
2023/03/31 17:14:35;;;;;;;34.07;17.53;;;;;;;;;;6246687;28;20049;-62
2023/03/31 17:17:36;;;;;;;33.17;17.23;;;;;;;;;;6241846;28;20063;-61
2023/03/31 17:20:37;;;;;;;35.75;19.83;;;;;;;;;;6247382;28;20045;-61
2023/03/31 17:23:38;;;;;;;45.15;22.25;;;;;;;;;;6243754;28;20494;-62
2023/03/31 17:26:39;;;;;;;40.75;22.67;;;;;;;;;;6245825;28;20056;-63
2023/03/31 17:29:40;;;;;;;35.72;19.83;;;;;;;;;;6245629;28;20045;-62
2023/03/31 17:32:41;;;;;;;40.63;20.58;;;;;;;;;;6246162;28;20048;-62
2023/03/31 17:35:42;;;;;;;42.30;21.48;;;;;;;;;;6252488;28;20052;-61
2023/03/31 17:38:43;;;;;;;40.17;22.75;;;;;;;;;;6256003;28;20068;-61
2023/03/31 17:41:44;;;;;;;44.30;22.05;;;;;;;;;;6258425;28;20049;-61
2023/03/31 17:44:46;;;;;;;46.83;21.98;;;;;;;;;;6253450;28;20092;-62
2023/03/31 17:47:47;;;;;;;43.40;22.35;;;;;;;;;;6254490;28;20048;-61
2023/03/31 17:50:47;;;;;;;44.78;21.55;;;;;;;;;;6257664;28;20064;-61
2023/03/31 17:53:48;;;;;;;47.70;23.20;;;;;;;;;;6257606;28;20127;-64
2023/03/31 17:56:49;;;;;;;35.97;18.35;;;;;;;;;;6254382;28;20388;-61
2023/03/31 17:59:50;;;;;;;26.95;13.60;;;;;;;;;;6257665;28;20052;-60
2023/03/31 18:02:51;;;;;;;30.63;14.48;;;;;;;;;;6257633;28;20480;-60
2023/03/31 18:05:52;;;;;;;26.43;13.17;;;;;;;;;;6255757;28;20048;-63
2023/03/31 18:08:55;;;;;;;25.92;12.82;;;;;;;;;;6256530;28;20510;-60
2023/03/31 18:11:57;;;;;;;25.38;12.73;;;;;;;;;;6257109;28;20053;-60
2023/03/31 18:14:58;;;;;;;18.27;10.95;;;;;;;;;;6256669;28;20148;-61
2023/03/31 18:17:59;;;;;;;21.45;12.15;;;;;;;;;;6255376;28;20061;-60
2023/03/31 18:21:04;;;;;;;19.33;10.80;;;;;;;;;;6256296;28;20114;-61
2023/03/31 18:24:06;;;;;;;23.40;12.27;;;;;;;;;;6256885;28;20788;-61
2023/03/31 18:27:06;;;;;;;38.28;23.33;;;;;;;;;;6254676;28;20063;-61